sensor_id;sensor_type;location;lat;lon;timestamp;temperature;humidity
75782;DHT22;64400;44.762;37.698;2022-11-12T00:00:57;6.80;95.15
75782;DHT22;64400;44.762;37.698;2022-11-12T00:03:58;6.79;95.17
75782;DHT22;64400;44.762;37.698;2022-11-12T00:07:05;6.81;95.12
75782;DHT22;64400;44.762;37.698;2022-11-12T00:10:13;6.83;94.85
75782;DHT22;64400;44.762;37.698;2022-11-12T00:13:20;6.79;94.80
75782;DHT22;64400;44.762;37.698;2022-11-12T00:16:27;6.73;94.65
75782;DHT22;64400;44.762;37.698;2022-11-12T00:19:34;6.70;94.92
75782;DHT22;64400;44.762;37.698;2022-11-12T00:22:42;6.65;94.93
75782;DHT22;64400;44.762;37.698;2022-11-12T00:25:57;6.63;95.07
75782;DHT22;64400;44.762;37.698;2022-11-12T00:29:04;6.54;95.35
75782;DHT22;64400;44.762;37.698;2022-11-12T00:32:12;6.51;95.55
75782;DHT22;64400;44.762;37.698;2022-11-12T00:35:19;6.45;95.92
75782;DHT22;64400;44.762;37.698;2022-11-12T00:38:28;6.40;96.19
75782;DHT22;64400;44.762;37.698;2022-11-12T00:41:36;6.36;96.30
75782;DHT22;64400;44.762;37.698;2022-11-12T00:44:31;6.31;96.55
75782;DHT22;64400;44.762;37.698;2022-11-12T00:47:39;6.31;96.59
75782;DHT22;64400;44.762;37.698;2022-11-12T00:50:46;6.29;97.16
75782;DHT22;64400;44.762;37.698;2022-11-12T00:53:53;6.22;97.97
75782;DHT22;64400;44.762;37.698;2022-11-12T00:57:00;6.09;98.23
75782;DHT22;64400;44.762;37.698;2022-11-12T01:00:13;6.05;98.74
75782;DHT22;64400;44.762;37.698;2022-11-12T01:03:21;5.96;99.01
75782;DHT22;64400;44.762;37.698;2022-11-12T01:06:28;5.75;100.19
75782;DHT22;64400;44.762;37.698;2022-11-12T01:09:35;5.63;101.11
75782;DHT22;64400;44.762;37.698;2022-11-12T01:12:42;5.67;100.89
75782;DHT22;64400;44.762;37.698;2022-11-12T01:15:39;5.70;100.66
75782;DHT22;64400;44.762;37.698;2022-11-12T01:18:50;5.72;100.66
75782;DHT22;64400;44.762;37.698;2022-11-12T01:21:58;5.76;100.45
75782;DHT22;64400;44.762;37.698;2022-11-12T01:24:45;5.78;100.16
75782;DHT22;64400;44.762;37.698;2022-11-12T01:27:33;5.80;99.30
75782;DHT22;64400;44.762;37.698;2022-11-12T01:30:40;5.90;98.83
75782;DHT22;64400;44.762;37.698;2022-11-12T01:33:28;5.86;99.61
75782;DHT22;64400;44.762;37.698;2022-11-12T01:36:37;5.78;100.04
75782;DHT22;64400;44.762;37.698;2022-11-12T01:39:44;5.81;100.16
75782;DHT22;64400;44.762;37.698;2022-11-12T01:42:52;5.76;101.38
75782;DHT22;64400;44.762;37.698;2022-11-12T01:45:50;5.71;101.19
75782;DHT22;64400;44.762;37.698;2022-11-12T01:49:10;5.54;101.87
75782;DHT22;64400;44.762;37.698;2022-11-12T01:55:31;5.51;101.94
75782;DHT22;64400;44.762;37.698;2022-11-12T01:58:40;5.50;101.96
75782;DHT22;64400;44.762;37.698;2022-11-12T02:01:48;5.54;102.15
75782;DHT22;64400;44.762;37.698;2022-11-12T02:04:56;5.55;101.73
75782;DHT22;64400;44.762;37.698;2022-11-12T02:08:04;5.52;101.77
75782;DHT22;64400;44.762;37.698;2022-11-12T02:11:14;5.51;102.53
75782;DHT22;64400;44.762;37.698;2022-11-12T02:14:22;5.71;101.82
75782;DHT22;64400;44.762;37.698;2022-11-12T02:17:29;5.87;100.67
75782;DHT22;64400;44.762;37.698;2022-11-12T02:20:19;5.91;100.22
75782;DHT22;64400;44.762;37.698;2022-11-12T02:23:26;5.80;100.99
75782;DHT22;64400;44.762;37.698;2022-11-12T02:26:35;5.84;100.80
75782;DHT22;64400;44.762;37.698;2022-11-12T02:29:42;5.84;100.81
75782;DHT22;64400;44.762;37.698;2022-11-12T02:32:53;5.85;100.94
75782;DHT22;64400;44.762;37.698;2022-11-12T02:35:59;5.99;100.16
75782;DHT22;64400;44.762;37.698;2022-11-12T02:38:58;6.00;99.98
75782;DHT22;64400;44.762;37.698;2022-11-12T02:41:45;5.93;100.80
75782;DHT22;64400;44.762;37.698;2022-11-12T02:44:53;5.80;100.86
75782;DHT22;64400;44.762;37.698;2022-11-12T02:48:00;5.78;101.02
75782;DHT22;64400;44.762;37.698;2022-11-12T02:51:07;5.75;101.42
75782;DHT22;64400;44.762;37.698;2022-11-12T02:54:14;5.74;101.48
75782;DHT22;64400;44.762;37.698;2022-11-12T02:57:21;5.70;101.45
75782;DHT22;64400;44.762;37.698;2022-11-12T03:00:28;5.70;102.22
75782;DHT22;64400;44.762;37.698;2022-11-12T03:03:35;5.68;102.16
75782;DHT22;64400;44.762;37.698;2022-11-12T03:06:42;5.80;101.06
75782;DHT22;64400;44.762;37.698;2022-11-12T03:09:49;5.86;100.44
75782;DHT22;64400;44.762;37.698;2022-11-12T03:12:42;5.82;100.93
75782;DHT22;64400;44.762;37.698;2022-11-12T03:15:49;5.82;100.93
75782;DHT22;64400;44.762;37.698;2022-11-12T03:18:56;5.79;100.54
75782;DHT22;64400;44.762;37.698;2022-11-12T03:21:55;5.83;100.32
75782;DHT22;64400;44.762;37.698;2022-11-12T03:25:04;5.89;100.15
75782;DHT22;64400;44.762;37.698;2022-11-12T03:28:14;5.87;99.97
75782;DHT22;64400;44.762;37.698;2022-11-12T03:31:21;5.81;100.42
75782;DHT22;64400;44.762;37.698;2022-11-12T03:34:10;5.72;100.64
75782;DHT22;64400;44.762;37.698;2022-11-12T03:37:18;5.80;100.25
75782;DHT22;64400;44.762;37.698;2022-11-12T03:40:25;5.78;100.98
75782;DHT22;64400;44.762;37.698;2022-11-12T03:43:33;5.90;100.75
75782;DHT22;64400;44.762;37.698;2022-11-12T03:46:40;5.98;100.45
75782;DHT22;64400;44.762;37.698;2022-11-12T03:49:47;5.91;100.22
75782;DHT22;64400;44.762;37.698;2022-11-12T03:52:36;5.78;101.11
75782;DHT22;64400;44.762;37.698;2022-11-12T03:55:43;5.75;101.15
75782;DHT22;64400;44.762;37.698;2022-11-12T03:58:51;5.76;100.74
75782;DHT22;64400;44.762;37.698;2022-11-12T04:01:57;5.72;101.14
75782;DHT22;64400;44.762;37.698;2022-11-12T04:05:05;5.76;101.44
75782;DHT22;64400;44.762;37.698;2022-11-12T04:08:31;5.80;100.94
75782;DHT22;64400;44.762;37.698;2022-11-12T04:11:28;5.85;101.02
75782;DHT22;64400;44.762;37.698;2022-11-12T04:14:35;5.85;101.00
75782;DHT22;64400;44.762;37.698;2022-11-12T04:17:42;5.86;100.86
75782;DHT22;64400;44.762;37.698;2022-11-12T04:21:11;5.93;100.57
75782;DHT22;64400;44.762;37.698;2022-11-12T04:24:41;5.91;100.67
75782;DHT22;64400;44.762;37.698;2022-11-12T04:28:07;5.96;100.84
75782;DHT22;64400;44.762;37.698;2022-11-12T04:30:55;6.00;100.56
75782;DHT22;64400;44.762;37.698;2022-11-12T04:34:02;6.00;100.86
75782;DHT22;64400;44.762;37.698;2022-11-12T04:37:32;6.09;100.59
75782;DHT22;64400;44.762;37.698;2022-11-12T04:40:31;6.25;100.11
75782;DHT22;64400;44.762;37.698;2022-11-12T04:43:46;6.49;99.23
75782;DHT22;64400;44.762;37.698;2022-11-12T04:47:12;6.69;98.36
75782;DHT22;64400;44.762;37.698;2022-11-12T04:50:02;6.90;97.29
75782;DHT22;64400;44.762;37.698;2022-11-12T04:53:10;7.14;96.45
75782;DHT22;64400;44.762;37.698;2022-11-12T04:56:17;7.35;94.96
75782;DHT22;64400;44.762;37.698;2022-11-12T04:59:24;7.57;94.59
75782;DHT22;64400;44.762;37.698;2022-11-12T05:02:31;7.78;93.70
75782;DHT22;64400;44.762;37.698;2022-11-12T05:05:33;8.03;93.11
75782;DHT22;64400;44.762;37.698;2022-11-12T05:08:40;8.29;91.82
75782;DHT22;64400;44.762;37.698;2022-11-12T05:11:47;8.47;91.01
75782;DHT22;64400;44.762;37.698;2022-11-12T05:14:54;8.70;90.03
75782;DHT22;64400;44.762;37.698;2022-11-12T05:18:01;8.94;88.84
75782;DHT22;64400;44.762;37.698;2022-11-12T05:21:09;9.06;88.89
75782;DHT22;64400;44.762;37.698;2022-11-12T05:24:15;9.37;87.91
75782;DHT22;64400;44.762;37.698;2022-11-12T05:27:21;9.59;86.89
75782;DHT22;64400;44.762;37.698;2022-11-12T05:30:28;9.72;87.03
75782;DHT22;64400;44.762;37.698;2022-11-12T05:33:35;9.79;85.04
75782;DHT22;64400;44.762;37.698;2022-11-12T05:36:42;10.01;85.69
75782;DHT22;64400;44.762;37.698;2022-11-12T05:39:31;9.99;84.61
75782;DHT22;64400;44.762;37.698;2022-11-12T05:42:39;9.78;84.84
75782;DHT22;64400;44.762;37.698;2022-11-12T05:45:42;9.48;86.67
75782;DHT22;64400;44.762;37.698;2022-11-12T05:48:49;9.33;88.04
75782;DHT22;64400;44.762;37.698;2022-11-12T05:51:56;9.44;87.87
75782;DHT22;64400;44.762;37.698;2022-11-12T05:55:03;9.76;87.27
75782;DHT22;64400;44.762;37.698;2022-11-12T05:57:52;10.09;84.47
75782;DHT22;64400;44.762;37.698;2022-11-12T06:00:59;10.59;82.15
75782;DHT22;64400;44.762;37.698;2022-11-12T06:03:45;10.95;80.43
75782;DHT22;64400;44.762;37.698;2022-11-12T06:06:52;10.74;80.56
75782;DHT22;64400;44.762;37.698;2022-11-12T06:09:59;11.16;80.17
75782;DHT22;64400;44.762;37.698;2022-11-12T06:13:07;11.23;79.63
75782;DHT22;64400;44.762;37.698;2022-11-12T06:15:55;11.89;77.45
75782;DHT22;64400;44.762;37.698;2022-11-12T06:19:02;12.26;74.62
75782;DHT22;64400;44.762;37.698;2022-11-12T06:22:10;12.57;74.64
75782;DHT22;64400;44.762;37.698;2022-11-12T06:25:17;13.25;72.17
75782;DHT22;64400;44.762;37.698;2022-11-12T06:28:18;13.46;71.11
75782;DHT22;64400;44.762;37.698;2022-11-12T06:31:25;13.82;69.61
75782;DHT22;64400;44.762;37.698;2022-11-12T06:34:32;13.05;72.22
75782;DHT22;64400;44.762;37.698;2022-11-12T06:37:39;12.53;72.95
75782;DHT22;64400;44.762;37.698;2022-11-12T06:40:45;12.21;74.48
75782;DHT22;64400;44.762;37.698;2022-11-12T06:43:53;12.44;73.82
75782;DHT22;64400;44.762;37.698;2022-11-12T06:47:00;12.67;71.92
75782;DHT22;64400;44.762;37.698;2022-11-12T06:50:07;12.73;72.17
75782;DHT22;64400;44.762;37.698;2022-11-12T06:53:14;13.39;71.78
75782;DHT22;64400;44.762;37.698;2022-11-12T06:56:21;14.21;67.66
75782;DHT22;64400;44.762;37.698;2022-11-12T06:59:30;14.41;67.84
75782;DHT22;64400;44.762;37.698;2022-11-12T07:02:37;14.34;67.43
75782;DHT22;64400;44.762;37.698;2022-11-12T07:05:44;14.63;65.00
75782;DHT22;64400;44.762;37.698;2022-11-12T07:08:51;15.09;64.78
75782;DHT22;64400;44.762;37.698;2022-11-12T07:11:58;15.44;64.58
75782;DHT22;64400;44.762;37.698;2022-11-12T07:15:06;15.67;61.64
75782;DHT22;64400;44.762;37.698;2022-11-12T07:18:13;15.76;62.00
75782;DHT22;64400;44.762;37.698;2022-11-12T07:21:20;16.14;61.76
75782;DHT22;64400;44.762;37.698;2022-11-12T07:24:15;16.47;60.12
75782;DHT22;64400;44.762;37.698;2022-11-12T07:27:22;16.87;59.89
75782;DHT22;64400;44.762;37.698;2022-11-12T07:30:17;16.75;60.48
75782;DHT22;64400;44.762;37.698;2022-11-12T07:33:14;17.22;60.44
75782;DHT22;64400;44.762;37.698;2022-11-12T07:36:21;17.88;56.64
75782;DHT22;64400;44.762;37.698;2022-11-12T07:39:11;18.07;54.88
75782;DHT22;64400;44.762;37.698;2022-11-12T07:42:19;18.47;54.74
75782;DHT22;64400;44.762;37.698;2022-11-12T07:45:26;18.59;55.36
75782;DHT22;64400;44.762;37.698;2022-11-12T07:48:33;18.50;57.27
75782;DHT22;64400;44.762;37.698;2022-11-12T07:51:26;18.49;56.87
75782;DHT22;64400;44.762;37.698;2022-11-12T09:13:52;17.20;58.51
75782;DHT22;64400;44.762;37.698;2022-11-12T09:16:41;16.95;59.58
75782;DHT22;64400;44.762;37.698;2022-11-12T09:19:48;16.71;61.17
75782;DHT22;64400;44.762;37.698;2022-11-12T09:22:42;16.78;60.15
75782;DHT22;64400;44.762;37.698;2022-11-12T09:25:49;17.00;60.49
75782;DHT22;64400;44.762;37.698;2022-11-12T09:28:56;17.18;60.07
75782;DHT22;64400;44.762;37.698;2022-11-12T09:32:03;17.24;59.84
75782;DHT22;64400;44.762;37.698;2022-11-12T09:35:10;17.56;58.58
75782;DHT22;64400;44.762;37.698;2022-11-12T09:38:18;17.08;59.18
75782;DHT22;64400;44.762;37.698;2022-11-12T09:41:37;17.03;60.78
75782;DHT22;64400;44.762;37.698;2022-11-12T09:44:56;16.43;61.68
75782;DHT22;64400;44.762;37.698;2022-11-12T09:48:09;15.80;63.91
75782;DHT22;64400;44.762;37.698;2022-11-12T09:51:25;15.17;66.20
75782;DHT22;64400;44.762;37.698;2022-11-12T09:54:34;14.66;67.19
75782;DHT22;64400;44.762;37.698;2022-11-12T09:57:41;13.98;68.97
75782;DHT22;64400;44.762;37.698;2022-11-12T10:00:57;12.85;73.32
75782;DHT22;64400;44.762;37.698;2022-11-12T10:08:04;12.33;75.47
75782;DHT22;64400;44.762;37.698;2022-11-12T10:15:30;12.18;77.40
75782;DHT22;64400;44.762;37.698;2022-11-12T10:25:30;11.25;80.91
75782;DHT22;64400;44.762;37.698;2022-11-12T10:28:50;11.13;80.52
75782;DHT22;64400;44.762;37.698;2022-11-12T10:37:48;10.52;83.04
75782;DHT22;64400;44.762;37.698;2022-11-12T10:42:18;10.54;83.89
75782;DHT22;64400;44.762;37.698;2022-11-12T10:51:36;10.56;83.00
75782;DHT22;64400;44.762;37.698;2022-11-12T12:17:00;20.66;49.60
75782;DHT22;64400;44.762;37.698;2022-11-12T12:21:43;19.99;52.37
75782;DHT22;64400;44.762;37.698;2022-11-12T12:31:35;19.58;52.77
75782;DHT22;64400;44.762;37.698;2022-11-12T12:36:50;18.67;55.26
75782;DHT22;64400;44.762;37.698;2022-11-12T12:57:37;18.06;56.63
75782;DHT22;64400;44.762;37.698;2022-11-12T13:00:51;17.30;58.76
75782;DHT22;64400;44.762;37.698;2022-11-12T13:04:08;16.66;60.62
75782;DHT22;64400;44.762;37.698;2022-11-12T13:07:21;15.97;63.19
75782;DHT22;64400;44.762;37.698;2022-11-12T13:44:20;11.74;79.40
75782;DHT22;64400;44.762;37.698;2022-11-12T13:52:39;11.34;81.01
75782;DHT22;64400;44.762;37.698;2022-11-12T13:57:56;11.19;81.88
75782;DHT22;64400;44.762;37.698;2022-11-12T14:02:42;10.99;82.65
75782;DHT22;64400;44.762;37.698;2022-11-12T14:05:47;10.89;82.43
75782;DHT22;64400;44.762;37.698;2022-11-12T14:18:16;10.62;83.69
75782;DHT22;64400;44.762;37.698;2022-11-12T14:21:19;10.37;84.49
75782;DHT22;64400;44.762;37.698;2022-11-12T14:26:00;10.30;85.04
75782;DHT22;64400;44.762;37.698;2022-11-12T14:54:50;9.78;87.71
75782;DHT22;64400;44.762;37.698;2022-11-12T15:02:42;9.70;88.33
75782;DHT22;64400;44.762;37.698;2022-11-12T15:17:35;9.45;89.84
75782;DHT22;64400;44.762;37.698;2022-11-12T15:20:43;9.51;89.41
75782;DHT22;64400;44.762;37.698;2022-11-12T15:27:42;9.31;90.64
75782;DHT22;64400;44.762;37.698;2022-11-12T15:36:27;9.19;90.83
75782;DHT22;64400;44.762;37.698;2022-11-12T15:46:45;9.09;92.70
75782;DHT22;64400;44.762;37.698;2022-11-12T15:51:40;9.17;91.16
75782;DHT22;64400;44.762;37.698;2022-11-12T16:01:15;9.00;91.74
75782;DHT22;64400;44.762;37.698;2022-11-12T16:04:15;8.63;93.29
75782;DHT22;64400;44.762;37.698;2022-11-12T16:09:09;8.41;93.85
75782;DHT22;64400;44.762;37.698;2022-11-12T16:17:33;8.16;93.94
75782;DHT22;64400;44.762;37.698;2022-11-12T18:02:31;7.16;97.38
75782;DHT22;64400;44.762;37.698;2022-11-12T18:07:08;7.18;96.87
75782;DHT22;64400;44.762;37.698;2022-11-12T18:11:52;7.22;96.35
75782;DHT22;64400;44.762;37.698;2022-11-12T18:14:56;7.18;95.75
75782;DHT22;64400;44.762;37.698;2022-11-12T18:17:56;7.22;95.71
75782;DHT22;64400;44.762;37.698;2022-11-12T18:27:04;7.05;95.69
75782;DHT22;64400;44.762;37.698;2022-11-12T19:52:45;6.93;94.88
75782;DHT22;64400;44.762;37.698;2022-11-12T19:57:20;6.98;94.73
75782;DHT22;64400;44.762;37.698;2022-11-12T21:04:46;6.23;98.03
75782;DHT22;64400;44.762;37.698;2022-11-12T21:07:38;6.29;97.42
75782;DHT22;64400;44.762;37.698;2022-11-12T21:10:49;6.34;96.80
75782;DHT22;64400;44.762;37.698;2022-11-12T21:13:58;6.34;96.81
75782;DHT22;64400;44.762;37.698;2022-11-12T21:16:57;6.30;97.02
75782;DHT22;64400;44.762;37.698;2022-11-12T21:20:05;6.20;97.29
75782;DHT22;64400;44.762;37.698;2022-11-12T21:23:13;6.07;97.87
75782;DHT22;64400;44.762;37.698;2022-11-12T21:26:21;6.02;98.28
75782;DHT22;64400;44.762;37.698;2022-11-12T21:29:28;5.95;98.27
75782;DHT22;64400;44.762;37.698;2022-11-12T21:32:35;5.83;98.26
75782;DHT22;64400;44.762;37.698;2022-11-12T21:35:32;5.61;99.32
75782;DHT22;64400;44.762;37.698;2022-11-12T21:38:40;5.50;100.10
75782;DHT22;64400;44.762;37.698;2022-11-12T21:41:47;5.45;100.83
75782;DHT22;64400;44.762;37.698;2022-11-12T21:44:48;5.43;100.83
75782;DHT22;64400;44.762;37.698;2022-11-12T21:47:38;5.47;100.83
75782;DHT22;64400;44.762;37.698;2022-11-12T21:50:46;5.57;101.01
75782;DHT22;64400;44.762;37.698;2022-11-12T21:53:59;5.64;100.96
75782;DHT22;64400;44.762;37.698;2022-11-12T21:57:07;5.71;100.94
75782;DHT22;64400;44.762;37.698;2022-11-12T22:00:14;5.77;100.90
75782;DHT22;64400;44.762;37.698;2022-11-12T22:03:22;5.86;101.01
75782;DHT22;64400;44.762;37.698;2022-11-12T22:06:23;5.99;101.04
75782;DHT22;64400;44.762;37.698;2022-11-12T22:09:31;6.10;101.51
75782;DHT22;64400;44.762;37.698;2022-11-12T22:12:39;6.24;100.93
75782;DHT22;64400;44.762;37.698;2022-11-12T22:15:47;6.33;100.10
75782;DHT22;64400;44.762;37.698;2022-11-12T22:18:57;6.44;100.02
75782;DHT22;64400;44.762;37.698;2022-11-12T22:22:05;6.49;99.48
75782;DHT22;64400;44.762;37.698;2022-11-12T22:25:12;6.56;99.37
75782;DHT22;64400;44.762;37.698;2022-11-12T22:28:19;6.55;99.45
75782;DHT22;64400;44.762;37.698;2022-11-12T22:31:31;6.63;98.94
75782;DHT22;64400;44.762;37.698;2022-11-12T22:34:39;6.64;99.26
75782;DHT22;64400;44.762;37.698;2022-11-12T22:37:46;6.74;99.19
75782;DHT22;64400;44.762;37.698;2022-11-12T22:41:00;6.82;98.77
75782;DHT22;64400;44.762;37.698;2022-11-12T22:44:07;6.90;98.60
75782;DHT22;64400;44.762;37.698;2022-11-12T22:47:14;6.98;98.38
75782;DHT22;64400;44.762;37.698;2022-11-12T22:50:21;7.05;98.52
75782;DHT22;64400;44.762;37.698;2022-11-12T22:53:29;7.11;98.52
75782;DHT22;64400;44.762;37.698;2022-11-12T22:56:36;7.12;98.74
75782;DHT22;64400;44.762;37.698;2022-11-12T22:59:46;7.19;97.99
75782;DHT22;64400;44.762;37.698;2022-11-12T23:02:52;7.25;98.68
75782;DHT22;64400;44.762;37.698;2022-11-12T23:06:04;7.27;98.36
75782;DHT22;64400;44.762;37.698;2022-11-12T23:09:15;7.30;98.23
75782;DHT22;64400;44.762;37.698;2022-11-12T23:12:23;7.24;98.57
75782;DHT22;64400;44.762;37.698;2022-11-12T23:15:11;7.20;98.66
75782;DHT22;64400;44.762;37.698;2022-11-12T23:18:18;7.19;99.02
75782;DHT22;64400;44.762;37.698;2022-11-12T23:21:27;7.15;99.39
75782;DHT22;64400;44.762;37.698;2022-11-12T23:24:34;7.18;99.55
75782;DHT22;64400;44.762;37.698;2022-11-12T23:27:41;7.17;99.79
75782;DHT22;64400;44.762;37.698;2022-11-12T23:30:30;7.18;99.93
75782;DHT22;64400;44.762;37.698;2022-11-12T23:33:37;7.20;100.21
75782;DHT22;64400;44.762;37.698;2022-11-12T23:36:44;7.28;99.83
75782;DHT22;64400;44.762;37.698;2022-11-12T23:39:51;7.35;99.42
75782;DHT22;64400;44.762;37.698;2022-11-12T23:42:58;7.41;99.16
75782;DHT22;64400;44.762;37.698;2022-11-12T23:46:05;7.49;99.08
75782;DHT22;64400;44.762;37.698;2022-11-12T23:49:12;7.49;99.55
75782;DHT22;64400;44.762;37.698;2022-11-12T23:52:20;7.54;99.15
75782;DHT22;64400;44.762;37.698;2022-11-12T23:55:28;7.63;97.97
75782;DHT22;64400;44.762;37.698;2022-11-12T23:58:37;7.69;98.58
